Time;durP1;ratioP1;P1;durP2;ratioP2;P2;SDS_P1;SDS_P2;PMS_P1;PMS_P2;Temp;Humidity;BMP_temperature;BMP_pressure;BME280_temperature;BME280_humidity;BME280_pressure;Samples;Min_cycle;Max_cycle;Signal;HPM_P1;HPM_P2
2022/03/12 00:02:07;;;;;;;8.02;2.22;;;7.20;99.90;;;;;;4951064;28;20039;-74
2022/03/12 00:04:33;;;;;;;2.95;2.47;;;7.20;99.90;;;;;;4943667;28;20525;-74
2022/03/12 00:06:59;;;;;;;3.50;3.20;;;7.20;99.90;;;;;;4955126;28;20328;-74
2022/03/12 00:09:24;;;;;;;4.90;3.33;;;7.20;99.90;;;;;;4925741;29;20036;-74
2022/03/12 00:11:55;;;;;;;2.67;2.47;;;7.20;99.90;;;;;;4927442;29;20040;-75
2022/03/12 00:14:22;;;;;;;4.78;2.75;;;7.30;99.90;;;;;;4945047;28;20527;-75
2022/03/12 00:16:49;;;;;;;3.60;1.88;;;7.30;99.90;;;;;;4933377;28;20111;-74
2022/03/12 00:19:16;;;;;;;3.92;3.60;;;7.30;99.90;;;;;;4925579;29;20044;-74
2022/03/12 00:21:42;;;;;;;6.80;2.38;;;7.30;99.90;;;;;;4944742;28;20229;-74
2022/03/12 00:24:11;;;;;;;5.03;3.25;;;7.20;99.90;;;;;;4941188;28;20047;-74
2022/03/12 00:26:41;;;;;;;4.35;3.60;;;7.20;99.90;;;;;;4931356;28;20090;-75
2022/03/12 00:29:14;;;;;;;4.47;3.42;;;7.20;99.90;;;;;;4944720;28;20052;-74
2022/03/12 00:31:44;;;;;;;1.65;1.55;;;7.20;99.90;;;;;;4943969;28;20414;-74
2022/03/12 00:34:09;;;;;;;4.40;3.40;;;7.20;99.90;;;;;;4944930;28;20039;-74
2022/03/12 00:36:35;;;;;;;5.05;2.92;;;7.20;99.90;;;;;;4932209;28;20062;-74
2022/03/12 00:39:01;;;;;;;2.10;2.00;;;7.10;99.90;;;;;;4924709;29;20040;-74
2022/03/12 00:41:26;;;;;;;2.38;2.28;;;7.10;99.90;;;;;;4941085;28;20051;-75
2022/03/12 00:43:52;;;;;;;8.25;3.97;;;7.10;99.90;;;;;;4943083;28;20051;-75
2022/03/12 00:46:19;;;;;;;3.15;2.83;;;7.10;99.90;;;;;;4928018;28;20075;-74
2022/03/12 00:48:45;;;;;;;2.40;2.20;;;7.10;99.90;;;;;;4925796;29;20118;-74
2022/03/12 00:51:11;;;;;;;2.80;2.58;;;7.10;99.90;;;;;;4926103;29;20598;-75
2022/03/12 00:53:37;;;;;;;3.47;2.70;;;7.10;99.90;;;;;;4925441;29;20063;-74
2022/03/12 00:56:05;;;;;;;4.55;3.45;;;7.10;99.90;;;;;;4925114;29;20070;-74
2022/03/12 00:58:31;;;;;;;3.80;1.88;;;7.10;99.90;;;;;;4925441;29;20051;-74
2022/03/12 01:00:56;;;;;;;5.88;2.53;;;7.10;99.90;;;;;;4926134;28;20039;-74
2022/03/12 01:03:22;;;;;;;2.55;2.42;;;7.00;99.90;;;;;;4938289;28;20059;-74
2022/03/12 01:05:47;;;;;;;3.15;2.90;;;7.00;99.90;;;;;;4925651;28;20177;-75
2022/03/12 01:08:14;;;;;;;2.25;2.13;;;7.00;99.90;;;;;;4925450;29;20526;-74
2022/03/12 01:10:46;;;;;;;2.13;1.98;;;7.00;99.90;;;;;;4923613;29;20135;-74
2022/03/12 01:13:12;;;;;;;3.38;3.08;;;7.00;99.90;;;;;;4942931;28;20434;-74
2022/03/12 01:15:39;;;;;;;3.22;3.03;;;7.00;99.90;;;;;;4958785;28;20411;-74
2022/03/12 01:18:11;;;;;;;3.67;3.38;;;6.90;99.90;;;;;;4927726;28;20047;-74
2022/03/12 01:20:36;;;;;;;4.13;3.17;;;6.90;99.90;;;;;;4944265;28;20043;-74
2022/03/12 01:23:04;;;;;;;4.22;2.47;;;6.90;99.90;;;;;;4942364;28;20042;-74
2022/03/12 01:25:30;;;;;;;3.13;2.42;;;6.90;99.90;;;;;;4941959;28;20276;-75
2022/03/12 01:27:56;;;;;;;4.72;2.83;;;6.90;99.90;;;;;;4930749;28;20406;-75
2022/03/12 01:30:29;;;;;;;8.07;3.83;;;6.90;99.90;;;;;;4927085;28;20043;-74
2022/03/12 01:32:55;;;;;;;6.45;2.42;;;6.80;99.90;;;;;;4933489;28;20047;-74
2022/03/12 01:35:21;;;;;;;4.18;3.20;;;6.80;99.90;;;;;;4940087;28;20047;-74
2022/03/12 01:37:47;;;;;;;2.83;2.63;;;6.80;99.90;;;;;;4924510;29;20518;-74
2022/03/12 01:40:14;;;;;;;2.13;1.92;;;6.80;99.90;;;;;;4924276;28;20083;-74
2022/03/12 01:42:40;;;;;;;3.78;3.53;;;6.80;99.90;;;;;;4923745;29;20499;-74
2022/03/12 01:45:10;;;;;;;2.85;2.65;;;6.80;99.90;;;;;;4932449;28;20054;-74
2022/03/12 01:47:36;;;;;;;4.03;3.60;;;6.80;99.90;;;;;;4943083;28;20082;-74
2022/03/12 01:50:02;;;;;;;2.08;1.98;;;6.80;99.90;;;;;;4936299;28;20028;-74
2022/03/12 01:52:31;;;;;;;2.13;2.03;;;6.80;99.90;;;;;;4924648;29;20272;-74
2022/03/12 01:54:57;;;;;;;3.20;1.35;;;6.80;99.90;;;;;;4924945;29;20039;-74
2022/03/12 01:57:22;;;;;;;2.63;2.42;;;6.80;99.90;;;;;;4931757;28;20043;-74
2022/03/12 01:59:48;;;;;;;2.88;2.67;;;6.80;99.90;;;;;;4931420;28;20082;-74
2022/03/12 02:02:15;;;;;;;4.40;2.70;;;6.80;99.90;;;;;;4936392;28;20094;-74
2022/03/12 02:04:49;;;;;;;7.20;3.00;;;6.80;99.90;;;;;;4933267;28;20060;-74
2022/03/12 02:07:16;;;;;;;4.57;1.90;;;6.80;99.90;;;;;;4925703;28;20047;-74
2022/03/12 02:09:42;;;;;;;3.58;2.78;;;6.80;99.90;;;;;;4924339;29;20467;-74
2022/03/12 02:12:08;;;;;;;2.83;2.65;;;6.80;99.90;;;;;;4924285;29;20046;-74
2022/03/12 02:14:34;;;;;;;2.38;2.17;;;6.80;99.90;;;;;;4942802;28;20447;-74
2022/03/12 02:17:03;;;;;;;5.10;2.53;;;6.80;99.90;;;;;;4942075;28;20047;-74
2022/03/12 02:19:31;;;;;;;2.50;2.20;;;6.90;99.90;;;;;;4945534;28;20453;-74
2022/03/12 02:21:59;;;;;;;3.03;2.35;;;6.80;99.90;;;;;;4932619;28;20358;-74
2022/03/12 02:24:28;;;;;;;5.38;2.40;;;6.80;99.90;;;;;;4945147;28;20057;-74
2022/03/12 02:26:58;;;;;;;4.95;4.05;;;6.90;99.90;;;;;;4945445;28;20051;-74
2022/03/12 02:29:24;;;;;;;4.93;3.40;;;6.80;99.90;;;;;;4932246;28;20040;-74
2022/03/12 02:32:00;;;;;;;3.22;2.92;;;6.90;99.90;;;;;;4929012;29;20036;-74
2022/03/12 02:34:39;;;;;;;3.15;2.85;;;6.80;99.90;;;;;;4927869;29;20040;-74
2022/03/12 02:37:05;;;;;;;2.40;2.25;;;6.90;99.90;;;;;;4927566;28;20054;-74
2022/03/12 02:39:31;;;;;;;2.63;2.42;;;6.90;99.90;;;;;;4927210;29;20151;-75
2022/03/12 02:42:00;;;;;;;3.00;2.80;;;6.90;99.90;;;;;;4926607;29;20051;-74
2022/03/12 02:44:28;;;;;;;4.97;2.45;;;6.90;99.90;;;;;;4930858;28;20559;-74
2022/03/12 02:47:17;;;;;;;3.67;2.88;;;6.90;99.90;;;;;;4946913;28;20038;-74
2022/03/12 02:49:54;;;;;;;5.25;2.92;;;6.90;99.90;;;;;;4946457;28;20671;-74
2022/03/12 02:52:22;;;;;;;2.83;2.63;;;6.90;99.90;;;;;;4945330;28;20426;-74
2022/03/12 02:54:50;;;;;;;2.65;2.45;;;6.90;99.90;;;;;;4928372;28;20126;-74
2022/03/12 02:57:17;;;;;;;5.63;3.25;;;6.90;99.90;;;;;;4933428;28;20509;-74
2022/03/12 02:59:45;;;;;;;3.92;3.53;;;6.90;99.90;;;;;;4936054;28;20048;-74
2022/03/12 03:02:12;;;;;;;1.73;1.63;;;6.90;99.90;;;;;;4929613;29;20043;-75
2022/03/12 03:04:40;;;;;;;4.75;2.53;;;6.90;99.90;;;;;;4946185;28;20059;-74
2022/03/12 03:07:09;;;;;;;2.17;1.98;;;6.90;99.90;;;;;;4942163;28;20051;-74
2022/03/12 03:09:35;;;;;;;6.18;3.63;;;6.90;99.90;;;;;;4926558;29;20048;-74
2022/03/12 03:12:02;;;;;;;5.40;3.50;;;6.90;99.90;;;;;;4931012;28;20047;-74
2022/03/12 03:14:28;;;;;;;3.03;2.67;;;6.90;99.90;;;;;;4946195;28;20079;-74
2022/03/12 03:16:55;;;;;;;2.83;2.63;;;6.90;99.90;;;;;;4946158;28;20055;-74
2022/03/12 03:19:25;;;;;;;3.08;2.75;;;6.90;99.90;;;;;;4945946;28;20039;-74
2022/03/12 03:21:56;;;;;;;3.10;2.47;;;7.00;99.90;;;;;;4944624;28;20047;-74
2022/03/12 03:24:22;;;;;;;3.42;3.08;;;7.00;99.90;;;;;;4943722;28;20094;-74
2022/03/12 03:26:47;;;;;;;2.95;2.72;;;7.10;99.90;;;;;;4945527;28;20126;-74
2022/03/12 03:29:15;;;;;;;3.30;3.03;;;7.10;99.90;;;;;;4938598;28;20147;-74
2022/03/12 03:31:41;;;;;;;8.68;3.17;;;7.10;99.90;;;;;;4928320;29;20047;-74
2022/03/12 03:34:06;;;;;;;3.97;3.63;;;7.10;99.90;;;;;;4926933;29;20039;-74
2022/03/12 03:36:32;;;;;;;7.25;3.10;;;7.10;99.90;;;;;;4926886;29;20407;-74
2022/03/12 03:38:58;;;;;;;3.97;3.30;;;7.10;99.90;;;;;;4925824;29;20040;-74
2022/03/12 03:41:23;;;;;;;5.72;3.42;;;7.10;99.90;;;;;;4931887;28;20490;-74
2022/03/12 03:43:51;;;;;;;5.45;3.40;;;7.10;99.90;;;;;;4927312;28;20102;-74
2022/03/12 03:46:20;;;;;;;2.75;2.45;;;7.10;99.90;;;;;;4946081;28;20156;-74
2022/03/12 03:48:48;;;;;;;4.47;2.90;;;7.10;99.90;;;;;;4944004;28;20459;-74
2022/03/12 03:51:13;;;;;;;2.08;1.98;;;7.10;99.90;;;;;;4944515;28;20051;-74
2022/03/12 03:53:39;;;;;;;4.18;3.70;;;7.10;99.90;;;;;;4928935;28;20063;-75
2022/03/12 03:56:05;;;;;;;3.53;2.90;;;7.10;99.90;;;;;;4930603;28;20050;-74
2022/03/12 03:58:32;;;;;;;4.20;2.95;;;7.10;99.90;;;;;;4943975;28;20043;-75
2022/03/12 04:01:13;;;;;;;3.83;3.53;;;7.10;99.90;;;;;;4938004;28;20044;-74
2022/03/12 04:03:42;;;;;;;7.80;3.03;;;7.10;99.90;;;;;;4927533;29;20055;-74
2022/03/12 04:06:08;;;;;;;6.82;3.60;;;7.10;99.90;;;;;;4926046;29;20576;-74
2022/03/12 04:08:35;;;;;;;4.57;3.95;;;7.10;99.90;;;;;;4940206;28;20094;-74
2022/03/12 04:11:05;;;;;;;3.65;3.35;;;7.10;99.90;;;;;;4928985;28;20077;-74
2022/03/12 04:13:31;;;;;;;6.80;3.15;;;7.00;99.90;;;;;;4945238;28;20517;-74
2022/03/12 04:16:02;;;;;;;7.50;3.78;;;7.00;99.90;;;;;;4944624;28;20043;-75
2022/03/12 04:18:29;;;;;;;4.18;2.78;;;7.00;99.90;;;;;;4927803;28;20051;-74
2022/03/12 04:20:54;;;;;;;4.93;4.43;;;7.00;99.90;;;;;;4936867;28;20043;-74
2022/03/12 04:23:24;;;;;;;3.65;3.35;;;6.90;99.90;;;;;;4925458;29;20105;-74
2022/03/12 04:25:52;;;;;;;3.55;3.00;;;6.90;99.90;;;;;;4926892;28;20051;-74
2022/03/12 04:28:19;;;;;;;5.75;3.90;;;6.90;99.90;;;;;;4942985;28;20051;-74
2022/03/12 04:30:45;;;;;;;10.40;3.33;;;6.90;99.90;;;;;;4942962;28;20035;-74
2022/03/12 04:33:11;;;;;;;5.70;3.53;;;6.80;99.90;;;;;;4933617;28;20055;-74
2022/03/12 04:35:38;;;;;;;3.95;3.50;;;6.80;99.90;;;;;;4938947;28;20090;-74
2022/03/12 04:38:04;;;;;;;3.85;2.90;;;6.80;99.90;;;;;;4944156;28;20050;-74
2022/03/12 04:40:30;;;;;;;26.50;4.53;;;6.80;99.90;;;;;;4942891;28;20043;-74
2022/03/12 04:42:55;;;;;;;4.90;3.63;;;6.80;99.90;;;;;;4944665;28;20134;-74
2022/03/12 04:45:25;;;;;;;18.83;4.82;;;6.80;99.90;;;;;;4944584;28;20175;-74
2022/03/12 04:47:53;;;;;;;7.35;3.40;;;6.70;99.90;;;;;;4942661;28;20036;-74
2022/03/12 04:50:21;;;;;;;4.57;4.25;;;6.70;99.90;;;;;;4943716;28;20375;-74
2022/03/12 04:52:52;;;;;;;4.03;3.20;;;6.70;99.90;;;;;;4938742;28;20118;-74
2022/03/12 04:55:22;;;;;;;3.97;3.50;;;6.70;99.90;;;;;;4925963;29;20118;-74
2022/03/12 04:57:49;;;;;;;4.85;4.38;;;6.70;99.90;;;;;;4924816;29;20453;-74
2022/03/12 05:00:20;;;;;;;4.47;3.35;;;6.70;99.90;;;;;;4938884;28;20327;-74
2022/03/12 05:02:47;;;;;;;4.22;3.00;;;6.70;99.90;;;;;;4929818;28;20399;-74
2022/03/12 05:05:14;;;;;;;6.05;4.55;;;6.70;99.90;;;;;;4937431;28;20072;-74
2022/03/12 05:07:44;;;;;;;5.78;3.67;;;6.70;99.90;;;;;;4928929;28;20095;-75
2022/03/12 05:10:12;;;;;;;6.55;5.18;;;6.70;99.90;;;;;;4942909;28;20043;-74
2022/03/12 05:12:40;;;;;;;4.93;4.53;;;6.70;99.90;;;;;;4944084;28;20510;-74
2022/03/12 05:15:10;;;;;;;4.60;4.15;;;6.60;99.90;;;;;;4932279;28;20111;-74
2022/03/12 05:17:40;;;;;;;5.10;4.60;;;6.60;99.90;;;;;;4940727;28;20414;-74
2022/03/12 05:20:07;;;;;;;6.88;5.38;;;6.60;99.90;;;;;;4942531;28;20111;-74
2022/03/12 05:22:32;;;;;;;4.55;3.85;;;6.60;99.90;;;;;;4943881;28;20161;-74
2022/03/12 05:24:58;;;;;;;3.80;3.45;;;6.50;99.90;;;;;;4925060;29;20083;-74
2022/03/12 05:27:25;;;;;;;5.13;3.13;;;6.50;99.90;;;;;;4907836;29;20090;-74
2022/03/12 05:29:54;;;;;;;7.40;5.57;;;6.50;99.90;;;;;;4933952;28;20134;-74
2022/03/12 05:32:19;;;;;;;5.68;4.00;;;6.50;99.90;;;;;;4928977;28;20527;-75
2022/03/12 05:34:45;;;;;;;9.00;4.35;;;6.50;99.90;;;;;;4924814;28;20122;-75
2022/03/12 05:37:11;;;;;;;4.80;4.30;;;6.50;99.90;;;;;;4934401;28;20043;-74
2022/03/12 05:39:37;;;;;;;8.00;3.58;;;6.50;99.90;;;;;;4942740;28;20670;-74
2022/03/12 05:42:05;;;;;;;5.30;4.70;;;6.40;99.90;;;;;;4943357;28;20098;-74
2022/03/12 05:44:34;;;;;;;6.95;4.38;;;6.50;99.90;;;;;;4937427;28;20051;-74
2022/03/12 05:47:01;;;;;;;4.32;3.28;;;6.40;99.90;;;;;;4936018;28;20555;-74
2022/03/12 05:49:27;;;;;;;5.53;3.95;;;6.40;99.90;;;;;;4942648;28;20047;-74
2022/03/12 05:51:52;;;;;;;4.07;2.90;;;6.40;99.90;;;;;;4922647;29;20183;-74
2022/03/12 05:54:18;;;;;;;5.25;4.63;;;6.40;99.90;;;;;;4923544;29;20071;-75
2022/03/12 05:56:44;;;;;;;4.18;3.88;;;6.40;99.90;;;;;;4925342;29;20044;-74
2022/03/12 05:59:10;;;;;;;4.10;3.70;;;6.40;99.90;;;;;;4934445;28;20486;-74
2022/03/12 06:01:35;;;;;;;6.30;3.75;;;6.40;99.90;;;;;;4942993;28;20409;-75
2022/03/12 06:04:01;;;;;;;4.35;3.95;;;6.40;99.90;;;;;;4927651;28;20066;-74
2022/03/12 06:06:29;;;;;;;5.88;4.15;;;6.40;99.90;;;;;;4923299;29;20044;-74
2022/03/12 06:08:58;;;;;;;4.95;4.03;;;6.30;99.90;;;;;;4941274;28;20043;-74
2022/03/12 06:11:27;;;;;;;7.38;3.38;;;6.30;99.90;;;;;;4943008;28;20043;-74
2022/03/12 06:13:59;;;;;;;4.63;3.97;;;6.30;99.90;;;;;;4941991;28;20039;-74
2022/03/12 06:16:25;;;;;;;;;;;6.30;99.90;;;;;;4942652;28;20035;-74
2022/03/12 06:18:54;;;;;;;4.00;3.70;;;6.20;99.90;;;;;;4935136;28;20010;-74
2022/03/12 06:21:20;;;;;;;3.08;2.85;;;6.20;99.90;;;;;;4939620;28;20074;-74
2022/03/12 06:23:46;;;;;;;5.43;3.70;;;6.20;99.90;;;;;;4925531;28;20048;-74
2022/03/12 06:26:15;;;;;;;3.25;3.03;;;6.10;99.90;;;;;;4932151;28;20039;-74
2022/03/12 06:28:41;;;;;;;6.05;5.10;;;6.10;99.90;;;;;;4942117;28;20047;-74
2022/03/12 06:31:08;;;;;;;3.85;3.40;;;6.10;99.90;;;;;;4943601;28;20066;-74
2022/03/12 06:33:34;;;;;;;5.18;4.32;;;6.10;99.90;;;;;;4927387;28;20550;-74
2022/03/12 06:36:02;;;;;;;4.90;3.30;;;6.10;99.90;;;;;;4942857;28;20071;-74
2022/03/12 06:38:28;;;;;;;3.33;3.10;;;6.10;99.90;;;;;;4932179;28;20047;-74
2022/03/12 06:40:58;;;;;;;4.40;4.00;;;6.00;99.90;;;;;;4924278;29;20452;-74
2022/03/12 06:43:28;;;;;;;6.72;4.82;;;6.00;99.90;;;;;;4922826;29;20058;-74
2022/03/12 06:46:01;;;;;;;5.05;4.65;;;6.00;99.90;;;;;;4939021;28;20498;-74
2022/03/12 06:48:29;;;;;;;7.85;4.97;;;6.00;99.90;;;;;;4942878;28;20067;-75
2022/03/12 06:50:55;;;;;;;4.07;3.78;;;5.90;99.90;;;;;;4927889;28;20046;-74
2022/03/12 06:53:21;;;;;;;4.30;3.55;;;5.90;99.90;;;;;;4923507;29;20259;-74
2022/03/12 06:55:46;;;;;;;5.05;4.57;;;5.90;99.90;;;;;;4930736;28;20417;-74
2022/03/12 06:58:12;;;;;;;7.05;3.10;;;5.90;99.90;;;;;;4943890;28;20043;-74
2022/03/12 07:00:37;;;;;;;5.28;4.78;;;5.90;99.90;;;;;;4936525;28;20071;-74
2022/03/12 07:03:03;;;;;;;4.35;3.95;;;5.90;99.90;;;;;;4927674;28;20039;-74
2022/03/12 07:05:29;;;;;;;16.50;4.57;;;5.90;99.90;;;;;;4938913;28;20044;-74
2022/03/12 07:07:55;;;;;;;8.73;4.82;;;5.90;99.90;;;;;;4935667;28;20051;-74
2022/03/12 07:10:21;;;;;;;6.05;3.13;;;6.00;99.90;;;;;;4935431;28;20086;-74
2022/03/12 07:12:48;;;;;;;5.30;4.80;;;6.00;99.90;;;;;;4933666;28;20044;-74
2022/03/12 07:15:16;;;;;;;3.00;2.78;;;6.00;99.90;;;;;;4927333;29;20039;-74
2022/03/12 07:17:42;;;;;;;5.72;4.55;;;6.00;99.90;;;;;;4929434;28;20090;-74
2022/03/12 07:20:09;;;;;;;6.25;4.38;;;6.00;99.90;;;;;;4930595;28;20066;-74
2022/03/12 07:22:35;;;;;;;5.97;4.85;;;6.10;99.90;;;;;;4944361;28;20050;-74
2022/03/12 07:25:02;;;;;;;6.15;4.50;;;6.10;99.90;;;;;;4909957;29;20042;-74
2022/03/12 07:27:28;;;;;;;4.50;4.10;;;6.10;99.90;;;;;;4933609;28;20048;-74
2022/03/12 07:29:53;;;;;;;6.97;5.60;;;6.10;99.90;;;;;;4932730;28;20131;-74
2022/03/12 07:32:20;;;;;;;4.15;3.45;;;6.10;99.90;;;;;;4930142;28;20048;-74
2022/03/12 07:34:46;;;;;;;4.90;4.50;;;6.20;99.90;;;;;;4927321;29;20518;-73
2022/03/12 07:37:12;;;;;;;7.28;4.32;;;6.20;99.90;;;;;;4941923;28;20035;-75
2022/03/12 07:39:41;;;;;;;4.63;4.18;;;6.30;99.90;;;;;;4943047;28;20481;-75
2022/03/12 07:42:07;;;;;;;4.88;3.92;;;6.30;99.90;;;;;;4936380;28;20036;-74
2022/03/12 07:44:33;;;;;;;5.63;4.82;;;6.30;99.90;;;;;;4944624;28;20055;-74
2022/03/12 07:46:59;;;;;;;7.32;4.75;;;6.30;99.90;;;;;;4947277;28;20039;-74
2022/03/12 07:49:25;;;;;;;4.00;3.42;;;6.40;99.90;;;;;;4946473;28;20039;-75
2022/03/12 07:51:51;;;;;;;8.20;4.53;;;6.40;99.90;;;;;;4946175;28;20044;-75
2022/03/12 07:54:17;;;;;;;6.10;4.03;;;6.50;99.90;;;;;;4945303;28;20062;-74
2022/03/12 07:56:43;;;;;;;5.32;3.85;;;6.50;99.90;;;;;;4944654;28;20032;-74
2022/03/12 07:59:10;;;;;;;5.80;4.65;;;6.60;99.90;;;;;;4944394;28;20039;-75
2022/03/12 08:01:36;;;;;;;5.15;3.85;;;6.60;99.90;;;;;;4952674;28;20493;-75
2022/03/12 08:04:02;;;;;;;7.80;4.85;;;6.70;99.90;;;;;;4944456;28;20044;-74
2022/03/12 08:06:31;;;;;;;5.70;5.20;;;6.70;99.90;;;;;;4946313;28;20519;-73
2022/03/12 08:08:57;;;;;;;4.40;2.92;;;6.80;99.90;;;;;;4944148;28;20525;-73
2022/03/12 08:11:30;;;;;;;6.97;4.80;;;6.90;99.90;;;;;;4945056;28;20043;-73
2022/03/12 08:14:02;;;;;;;12.00;4.90;;;7.00;99.90;;;;;;4946474;28;20129;-73
2022/03/12 08:16:33;;;;;;;4.55;3.60;;;7.00;99.90;;;;;;4945383;28;20114;-73
2022/03/12 08:19:01;;;;;;;6.63;4.50;;;7.10;99.90;;;;;;4943258;28;20740;-73
2022/03/12 08:21:27;;;;;;;4.75;3.55;;;7.20;99.90;;;;;;4945297;28;20051;-73
2022/03/12 08:23:52;;;;;;;5.13;4.65;;;7.30;99.90;;;;;;4943571;28;20050;-73
2022/03/12 08:26:19;;;;;;;4.80;4.35;;;7.30;99.90;;;;;;4928217;28;20046;-75
2022/03/12 08:28:45;;;;;;;5.05;4.20;;;7.40;99.90;;;;;;4940483;28;20047;-74
2022/03/12 08:31:12;;;;;;;6.65;5.65;;;7.40;99.90;;;;;;4945862;28;20039;-74
2022/03/12 08:33:38;;;;;;;5.43;3.55;;;7.50;99.90;;;;;;4944936;28;20397;-75
2022/03/12 08:36:05;;;;;;;10.27;5.25;;;7.60;99.90;;;;;;4942739;28;20143;-75
2022/03/12 08:38:32;;;;;;;5.63;3.95;;;7.60;99.90;;;;;;4939375;28;20073;-74
2022/03/12 08:40:58;;;;;;;9.35;5.25;;;7.70;99.90;;;;;;4935532;28;20545;-74
2022/03/12 08:43:24;;;;;;;8.18;4.35;;;7.70;99.90;;;;;;4944239;28;20047;-74
2022/03/12 08:45:50;;;;;;;10.93;4.60;;;7.80;99.90;;;;;;4927355;29;20393;-76
2022/03/12 08:48:17;;;;;;;8.20;4.85;;;7.90;99.90;;;;;;4944104;28;20451;-75
2022/03/12 08:50:47;;;;;;;13.82;5.43;;;8.00;99.90;;;;;;4944295;28;20171;-74
2022/03/12 08:53:13;;;;;;;5.70;5.15;;;8.00;99.90;;;;;;4944825;28;20054;-75
2022/03/12 08:55:39;;;;;;;5.72;5.13;;;8.00;99.90;;;;;;4943998;28;20688;-75
2022/03/12 08:58:05;;;;;;;8.68;4.15;;;8.10;99.90;;;;;;4944147;28;20118;-75
2022/03/12 09:00:31;;;;;;;7.03;4.65;;;8.20;99.90;;;;;;4943925;28;20142;-74
2022/03/12 09:02:57;;;;;;;6.80;4.55;;;8.20;99.90;;;;;;4942634;28;20035;-74
2022/03/12 09:05:23;;;;;;;7.75;5.15;;;8.30;99.90;;;;;;4927106;29;20130;-73
2022/03/12 09:07:51;;;;;;;4.60;4.20;;;8.30;99.90;;;;;;4943486;28;20182;-73
2022/03/12 09:10:19;;;;;;;4.63;3.95;;;8.30;99.90;;;;;;4944965;28;20058;-73
2022/03/12 09:12:45;;;;;;;6.50;4.68;;;8.40;99.90;;;;;;4944682;28;20051;-73
2022/03/12 09:15:12;;;;;;;7.47;4.45;;;8.50;99.90;;;;;;4944102;28;20051;-74
2022/03/12 09:17:37;;;;;;;6.65;3.58;;;8.50;99.90;;;;;;4943085;28;20047;-74
2022/03/12 09:20:05;;;;;;;11.48;4.68;;;8.60;99.90;;;;;;4958298;28;20053;-73
2022/03/12 09:22:31;;;;;;;5.88;5.35;;;8.60;99.90;;;;;;4941686;28;20096;-75
2022/03/12 09:24:57;;;;;;;8.50;5.57;;;8.70;99.90;;;;;;4941583;28;20043;-73
2022/03/12 09:27:23;;;;;;;8.73;5.15;;;8.70;99.90;;;;;;4923576;29;20535;-74
2022/03/12 09:29:48;;;;;;;3.45;3.15;;;8.80;99.90;;;;;;4943420;28;20039;-74
2022/03/12 09:32:14;;;;;;;4.97;4.13;;;8.80;99.90;;;;;;4941072;28;20663;-75
2022/03/12 09:34:40;;;;;;;4.18;3.80;;;8.80;99.90;;;;;;4943844;28;20546;-72
2022/03/12 09:37:09;;;;;;;9.63;3.10;;;8.90;99.90;;;;;;4941992;28;20043;-73
2022/03/12 09:39:36;;;;;;;6.07;4.93;;;8.90;99.90;;;;;;4940972;28;20058;-75
2022/03/12 09:42:02;;;;;;;5.88;5.15;;;9.00;99.90;;;;;;4940794;28;20059;-74
2022/03/12 09:44:28;;;;;;;4.18;3.33;;;9.00;99.90;;;;;;4923083;28;20070;-75
2022/03/12 09:46:55;;;;;;;5.68;4.78;;;9.10;99.90;;;;;;4940381;28;20535;-81
2022/03/12 09:49:21;;;;;;;4.55;3.70;;;9.20;99.90;;;;;;4941877;28;20088;-81
2022/03/12 09:51:47;;;;;;;5.97;4.57;;;9.20;99.90;;;;;;4924763;29;20070;-75
2022/03/12 09:54:13;;;;;;;4.15;3.45;;;9.10;99.90;;;;;;4940087;28;20160;-74
2022/03/12 09:56:39;;;;;;;5.00;3.20;;;9.20;99.90;;;;;;4943899;28;20047;-75
2022/03/12 09:59:08;;;;;;;6.40;3.88;;;9.20;99.90;;;;;;4941662;28;20412;-75
2022/03/12 10:01:33;;;;;;;6.18;4.07;;;9.20;99.90;;;;;;4941171;28;20505;-77
2022/03/12 10:03:59;;;;;;;3.90;3.30;;;9.30;99.90;;;;;;4940984;28;20059;-75
2022/03/12 10:06:25;;;;;;;7.22;3.45;;;9.30;99.90;;;;;;4940665;28;20122;-77
2022/03/12 10:08:52;;;;;;;7.70;4.35;;;9.30;99.90;;;;;;4924847;28;20482;-85
2022/03/12 10:11:18;;;;;;;4.95;4.45;;;9.40;99.90;;;;;;4938098;28;20071;-87
2022/03/12 10:13:44;;;;;;;5.32;4.80;;;9.50;99.90;;;;;;4940645;28;20528;-85
2022/03/12 10:16:10;;;;;;;3.85;3.55;;;9.50;99.90;;;;;;4941128;28;20044;-85
2022/03/12 10:18:36;;;;;;;3.55;3.25;;;9.60;99.90;;;;;;4938981;28;20075;-77
2022/03/12 10:21:02;;;;;;;7.72;2.55;;;9.60;99.90;;;;;;4909311;29;20535;-81
2022/03/12 10:23:28;;;;;;;4.53;3.95;;;9.60;99.90;;;;;;4939307;28;20051;-85
2022/03/12 10:25:54;;;;;;;14.50;4.63;;;9.60;99.90;;;;;;4938209;28;20075;-85
2022/03/12 10:28:20;;;;;;;3.00;2.78;;;9.70;99.90;;;;;;4940472;28;20481;-79
2022/03/12 10:30:46;;;;;;;4.05;3.25;;;9.70;99.90;;;;;;4941802;28;20039;-78
2022/03/12 10:33:25;;;;;;;3.10;2.65;;;9.80;99.90;;;;;;4925780;28;20560;-78
2022/03/12 10:35:51;;;;;;;5.95;2.58;;;9.80;99.90;;;;;;4941678;28;20295;-78
2022/03/12 10:38:17;;;;;;;4.25;2.70;;;9.90;99.90;;;;;;4942753;28;20043;-79
2022/03/12 10:40:44;;;;;;;4.55;3.30;;;9.90;99.90;;;;;;4947315;28;20036;-78
2022/03/12 10:43:13;;;;;;;4.10;3.58;;;10.00;99.90;;;;;;4947776;28;20058;-78
2022/03/12 10:45:47;;;;;;;3.80;2.78;;;10.00;99.90;;;;;;4946981;28;20048;-78
2022/03/12 10:48:19;;;;;;;3.15;2.38;;;10.00;99.90;;;;;;4945864;28;20040;-78
2022/03/12 10:50:47;;;;;;;2.70;2.50;;;10.10;99.90;;;;;;4944413;28;20126;-77
2022/03/12 10:53:15;;;;;;;3.00;2.70;;;10.20;99.90;;;;;;4944002;28;20435;-79
2022/03/12 10:55:43;;;;;;;2.17;1.98;;;10.10;99.90;;;;;;4943334;28;20044;-77
2022/03/12 10:58:12;;;;;;;6.85;2.10;;;10.20;99.90;;;;;;4945873;28;20335;-77
2022/03/12 11:00:39;;;;;;;2.42;1.80;;;10.30;99.90;;;;;;4945868;28;20039;-76
2022/03/12 11:03:10;;;;;;;4.43;2.50;;;10.30;99.90;;;;;;4944975;28;20043;-77
2022/03/12 11:05:37;;;;;;;1.58;1.58;;;10.40;99.90;;;;;;4946520;28;20039;-77
2022/03/12 11:08:23;;;;;;;2.40;1.88;;;10.40;99.90;;;;;;4942560;28;20043;-77
2022/03/12 11:10:54;;;;;;;2.80;2.33;;;10.50;99.90;;;;;;4943843;28;20043;-78
2022/03/12 11:13:39;;;;;;;2.85;2.65;;;10.50;99.90;;;;;;4942779;28;20050;-78
2022/03/12 11:16:15;;;;;;;2.47;2.28;;;10.60;99.90;;;;;;4938477;28;20070;-78
2022/03/12 11:18:53;;;;;;;1.92;1.83;;;10.60;99.90;;;;;;4940006;28;20063;-80
2022/03/12 11:21:37;;;;;;;5.22;1.80;;;10.70;99.90;;;;;;4943670;28;20105;-81
2022/03/12 11:24:25;;;;;;;2.53;1.85;;;10.80;99.90;;;;;;4942559;28;20055;-81
2022/03/12 11:27:03;;;;;;;7.50;1.60;;;10.80;99.90;;;;;;4942731;28;20043;-80
2022/03/12 11:29:30;;;;;;;7.30;1.33;;;10.80;99.90;;;;;;4944128;28;20054;-81
2022/03/12 11:32:02;;;;;;;2.65;2.38;;;10.90;99.90;;;;;;4943857;28;20432;-79
2022/03/12 11:34:34;;;;;;;5.18;2.13;;;10.80;99.90;;;;;;4946019;28;20050;-79
2022/03/12 11:37:04;;;;;;;1.92;1.83;;;10.90;99.90;;;;;;4945467;28;20401;-81
2022/03/12 11:39:55;;;;;;;1.70;1.60;;;10.90;99.90;;;;;;4942392;28;20130;-79
2022/03/12 11:42:41;;;;;;;1.95;1.63;;;11.00;99.90;;;;;;4933759;28;20051;-80
2022/03/12 11:45:14;;;;;;;3.22;2.00;;;11.00;99.90;;;;;;4954576;28;20042;-80
2022/03/12 11:47:45;;;;;;;0.90;0.90;;;11.00;99.90;;;;;;4951551;28;20489;-80
2022/03/12 11:50:15;;;;;;;2.03;1.60;;;11.00;99.90;;;;;;4962427;28;20043;-80
2022/03/12 11:52:42;;;;;;;1.55;1.35;;;11.00;99.90;;;;;;4946118;28;20047;-78
2022/03/12 11:55:21;;;;;;;3.15;2.10;;;11.00;99.90;;;;;;4945445;28;20043;-78
2022/03/12 11:57:48;;;;;;;6.75;1.88;;;11.10;99.90;;;;;;4946385;28;20130;-77
2022/03/12 12:00:33;;;;;;;8.00;2.42;;;11.10;99.90;;;;;;4945256;28;20046;-77
2022/03/12 12:02:59;;;;;;;1.27;1.17;;;11.10;99.90;;;;;;4946290;28;20572;-77
2022/03/12 12:05:29;;;;;;;2.58;2.20;;;11.20;99.90;;;;;;4928639;28;20055;-77
2022/03/12 12:07:55;;;;;;;1.88;1.35;;;11.20;99.90;;;;;;4945557;28;20062;-77
2022/03/12 12:10:30;;;;;;;2.65;1.98;;;11.20;99.90;;;;;;4946255;28;20023;-77
2022/03/12 12:12:57;;;;;;;4.97;2.95;;;11.30;99.90;;;;;;4946187;28;20055;-77
2022/03/12 12:15:29;;;;;;;5.47;2.22;;;11.30;99.90;;;;;;4945620;28;20848;-77
2022/03/12 12:17:55;;;;;;;4.63;2.03;;;11.30;99.90;;;;;;4939531;28;20177;-76
2022/03/12 12:20:22;;;;;;;1.77;1.67;;;11.30;99.90;;;;;;4954994;28;20043;-77
2022/03/12 12:22:49;;;;;;;2.20;1.33;;;11.30;99.90;;;;;;4946083;28;20054;-80
2022/03/12 12:25:17;;;;;;;2.10;1.85;;;11.30;99.90;;;;;;4960485;28;20043;-77
2022/03/12 12:27:47;;;;;;;2.15;1.60;;;11.40;99.90;;;;;;4944156;28;20047;-77
2022/03/12 12:30:25;;;;;;;2.13;1.40;;;11.40;99.90;;;;;;4933153;28;20047;-78
2022/03/12 12:32:51;;;;;;;7.57;2.22;;;11.40;99.90;;;;;;4925656;28;20076;-81
2022/03/12 12:35:22;;;;;;;6.63;2.03;;;11.40;99.90;;;;;;4925600;29;20118;-77
2022/03/12 12:37:54;;;;;;;1.67;1.58;;;11.50;99.90;;;;;;4924266;29;20086;-77
2022/03/12 12:40:20;;;;;;;1.92;1.42;;;11.50;99.90;;;;;;4924588;29;20058;-78
2022/03/12 12:42:49;;;;;;;2.65;2.13;;;11.50;99.90;;;;;;4937158;28;20043;-83
2022/03/12 12:45:17;;;;;;;1.98;1.80;;;11.60;99.90;;;;;;4948922;28;20042;-80
2022/03/12 12:47:43;;;;;;;3.50;1.98;;;11.70;99.90;;;;;;4932243;28;20050;-82
2022/03/12 12:50:24;;;;;;;2.22;2.08;;;11.70;99.90;;;;;;4943626;28;20043;-83
2022/03/12 12:53:27;;;;;;;3.22;2.08;;;11.70;99.90;;;;;;4935429;28;20494;-81
2022/03/12 12:56:09;;;;;;;2.05;1.83;;;11.80;99.90;;;;;;4938477;28;20466;-85
2022/03/12 12:58:56;;;;;;;10.82;1.88;;;11.80;99.90;;;;;;4941250;28;20051;-85
2022/03/12 13:01:32;;;;;;;2.90;2.35;;;11.70;99.90;;;;;;4944820;28;20058;-75